Kota Bharu, Malaysia
Current Conditions -  °F | °C
As of 6:00 AM on Sunday 26 Oct 2014 (Local Time) from WMKC Reporting Station
Light Rain Light Rain  
Wind Chill: 77°   Ceiling: 22000
Heat Index: 78°   Visibility: 6mi
Dew Point: 75°   Wind: 0mph
Humidity: 94%   Direction: NA
Pressure: 29.85"   Gusts: NA
Location:  6.17°N, 102.28°E
Report Text: WMKC 252200Z 00000KT 9000 -RA FEW017CB SCT020 OVC220 25/24 Q1011 RETSRA
Loading
Personal Weather Stations






























Interactive Weather Map
Tropical Storm Tracking
New forecast layout! Learn more

10-Day Weather Forecast

Advertisements
Track Severe Weather on mobile